Time;durP1;ratioP1;P1;durP2;ratioP2;P2;SDS_P1;SDS_P2;PMS_P1;PMS_P2;Temp;Humidity;BMP_temperature;BMP_pressure;BME280_temperature;BME280_humidity;BME280_pressure;Samples;Min_cycle;Max_cycle;Signal;HPM_P1;HPM_P2
2023/08/31 00:00:15;;;;;;;11.20;3.40;;;;;;;14.57;100.00;99480.72;107730;1273;25334;-77
2023/08/31 00:03:06;;;;;;;10.90;2.90;;;;;;;14.55;100.00;99476.10;107656;1273;24312;-78
2023/08/31 00:05:40;;;;;;;11.00;2.90;;;;;;;14.53;100.00;99472.95;107646;1267;22511;-78
2023/08/31 00:08:12;;;;;;;10.80;3.10;;;;;;;14.50;100.00;99474.86;107649;1273;22544;-78
2023/08/31 00:10:43;;;;;;;13.70;4.20;;;;;;;14.49;100.00;99476.05;107828;1269;22534;-78
2023/08/31 00:13:14;;;;;;;10.10;3.50;;;;;;;14.48;100.00;99475.48;107826;1266;22561;-78
2023/08/31 00:15:47;;;;;;;11.90;2.80;;;;;;;14.47;100.00;99476.73;107820;1269;22513;-78
2023/08/31 00:18:18;;;;;;;11.40;3.10;;;;;;;14.46;100.00;99476.23;107725;1269;22593;-77
2023/08/31 00:20:49;;;;;;;10.50;3.10;;;;;;;14.47;100.00;99480.81;107798;1273;22672;-77
2023/08/31 00:23:20;;;;;;;10.60;3.10;;;;;;;14.48;100.00;99478.82;107672;1266;22569;-77
2023/08/31 00:25:52;;;;;;;11.80;3.10;;;;;;;14.48;100.00;99480.70;107574;1273;22541;-77
2023/08/31 00:28:23;;;;;;;13.60;3.10;;;;;;;14.49;100.00;99481.77;107565;1273;22531;-77
2023/08/31 00:30:57;;;;;;;8.40;2.90;;;;;;;14.49;100.00;99482.06;107617;1273;22572;-77
2023/08/31 00:33:33;;;;;;;12.20;3.00;;;;;;;14.48;100.00;99478.40;107643;1266;22533;-78
2023/08/31 00:36:07;;;;;;;7.60;2.40;;;;;;;14.47;100.00;99473.15;107716;1273;22653;-78
2023/08/31 00:38:38;;;;;;;11.70;3.00;;;;;;;14.47;100.00;99468.35;107677;1266;22550;-77
2023/08/31 00:41:09;;;;;;;8.10;2.70;;;;;;;14.46;100.00;99463.04;107688;1272;23799;-78
2023/08/31 00:43:40;;;;;;;10.20;3.00;;;;;;;14.46;100.00;99465.20;107625;1273;22514;-78
2023/08/31 00:46:11;;;;;;;8.60;2.20;;;;;;;14.45;100.00;99464.59;107693;1273;22752;-77
2023/08/31 00:48:42;;;;;;;9.20;2.80;;;;;;;14.45;100.00;99465.61;107650;1273;25272;-78
2023/08/31 00:51:13;;;;;;;9.40;2.80;;;;;;;14.45;100.00;99465.31;107622;1273;22524;-78
2023/08/31 00:53:44;;;;;;;8.80;2.90;;;;;;;14.45;100.00;99461.73;107602;1273;24125;-78
2023/08/31 00:56:15;;;;;;;9.40;2.40;;;;;;;14.45;100.00;99459.39;107694;1273;22677;-78
2023/08/31 00:58:46;;;;;;;10.80;3.20;;;;;;;14.45;100.00;99460.91;107688;1273;22512;-78
2023/08/31 01:01:27;;;;;;;9.70;3.00;;;;;;;14.45;100.00;99461.23;107687;1266;22521;-78
2023/08/31 01:04:13;;;;;;;13.70;3.10;;;;;;;14.44;100.00;99458.58;107706;1266;22525;-78
2023/08/31 01:06:52;;;;;;;13.60;3.50;;;;;;;14.43;100.00;99457.16;107716;1273;22513;-77
2023/08/31 01:09:32;;;;;;;9.70;3.00;;;;;;;14.42;100.00;99455.34;107705;1272;22514;-77
2023/08/31 01:12:08;;;;;;;11.00;3.30;;;;;;;14.42;100.00;99458.40;110453;1273;22386;-78
2023/08/31 01:14:43;;;;;;;26.70;3.20;;;;;;;14.40;100.00;99455.04;110474;1273;22148;-78
2023/08/31 01:17:17;;;;;;;8.90;2.80;;;;;;;14.41;100.00;99458.45;110526;1272;22405;-78
2023/08/31 01:19:51;;;;;;;11.40;2.90;;;;;;;14.40;100.00;99462.26;110467;1273;22235;-78
2023/08/31 01:22:31;;;;;;;11.70;2.60;;;;;;;14.38;100.00;99470.89;110510;1273;23474;-77
2023/08/31 01:25:05;;;;;;;12.40;2.80;;;;;;;14.36;100.00;99474.08;110483;1273;22173;-77
2023/08/31 01:27:37;;;;;;;10.40;2.80;;;;;;;14.35;100.00;99475.30;110568;1273;22196;-77
2023/08/31 01:30:09;;;;;;;9.70;2.40;;;;;;;14.35;100.00;99470.81;110511;1269;22461;-78
2023/08/31 01:32:45;;;;;;;10.70;3.60;;;;;;;14.35;100.00;99472.48;110488;1273;22242;-77
2023/08/31 01:35:17;;;;;;;6.90;1.90;;;;;;;14.35;100.00;99473.92;110502;1273;23016;-77
2023/08/31 01:37:53;;;;;;;8.30;2.00;;;;;;;14.35;100.00;99471.63;110486;1266;22200;-78
2023/08/31 01:40:32;;;;;;;12.00;2.80;;;;;;;14.34;100.00;99472.40;110524;1273;22422;-78
2023/08/31 01:43:04;;;;;;;7.40;2.10;;;;;;;14.33;100.00;99475.83;110483;1274;22205;-78
2023/08/31 01:45:37;;;;;;;9.60;2.50;;;;;;;14.31;100.00;99474.52;110504;1273;22167;-78
2023/08/31 01:48:09;;;;;;;10.80;2.60;;;;;;;14.28;100.00;99475.86;110522;1272;22457;-77
2023/08/31 01:50:40;;;;;;;11.20;2.10;;;;;;;14.26;100.00;99479.23;110473;1273;22402;-78
2023/08/31 01:53:11;;;;;;;8.10;2.30;;;;;;;14.25;100.00;99477.25;110328;1272;210999;-78
2023/08/31 01:55:41;;;;;;;6.80;2.30;;;;;;;14.23;100.00;99479.51;110510;1273;22195;-78
2023/08/31 01:58:12;;;;;;;10.40;2.40;;;;;;;14.22;100.00;99478.55;110483;1273;22152;-78
2023/08/31 02:00:44;;;;;;;9.80;2.30;;;;;;;14.21;100.00;99479.23;110492;1272;22859;-78
2023/08/31 02:03:15;;;;;;;12.20;2.00;;;;;;;14.18;100.00;99480.00;110489;1273;22425;-78
2023/08/31 02:05:45;;;;;;;7.30;2.40;;;;;;;14.16;100.00;99479.46;110471;1274;22196;-78
2023/08/31 02:08:17;;;;;;;8.30;1.90;;;;;;;14.14;100.00;99479.23;110506;1273;23370;-78
2023/08/31 02:10:49;;;;;;;10.10;2.60;;;;;;;14.12;100.00;99482.77;110465;1269;23032;-78
2023/08/31 02:13:19;;;;;;;10.40;2.80;;;;;;;14.09;100.00;99478.79;110501;1267;22717;-78
2023/08/31 02:15:53;;;;;;;14.40;2.80;;;;;;;14.06;100.00;99479.85;110466;1273;22240;-78
2023/08/31 02:18:24;;;;;;;13.00;2.40;;;;;;;14.05;100.00;99478.95;110476;1273;23124;-78
2023/08/31 02:20:56;;;;;;;10.30;2.50;;;;;;;14.03;100.00;99476.70;110445;1273;22181;-78
2023/08/31 02:23:26;;;;;;;12.20;2.70;;;;;;;14.02;100.00;99477.36;110509;1273;22473;-78
2023/08/31 02:25:57;;;;;;;13.20;3.20;;;;;;;14.01;100.00;99479.67;110490;1262;22180;-78
2023/08/31 02:28:28;;;;;;;11.70;3.40;;;;;;;13.99;100.00;99477.75;110515;1273;22927;-77
2023/08/31 02:31:03;;;;;;;9.20;3.00;;;;;;;13.99;100.00;99484.74;110495;1273;22160;-78
2023/08/31 02:33:33;;;;;;;10.80;2.60;;;;;;;13.97;100.00;99486.39;110470;1269;22208;-78
2023/08/31 02:36:05;;;;;;;9.00;2.50;;;;;;;13.96;100.00;99490.98;110479;1265;22207;-78
2023/08/31 02:38:35;;;;;;;12.20;3.30;;;;;;;13.97;100.00;99487.80;110497;1270;23400;-78
2023/08/31 02:41:07;;;;;;;9.90;2.80;;;;;;;13.96;100.00;99484.95;110484;1273;22231;-78
2023/08/31 02:43:39;;;;;;;10.40;2.80;;;;;;;13.96;100.00;99482.55;110564;1262;22228;-78
2023/08/31 02:46:09;;;;;;;9.10;2.90;;;;;;;13.95;100.00;99476.86;110503;1273;22883;-79
2023/08/31 02:48:40;;;;;;;14.10;3.80;;;;;;;13.93;100.00;99481.16;110467;1273;22506;-78
2023/08/31 02:51:11;;;;;;;11.10;2.40;;;;;;;13.90;100.00;99481.43;110487;1273;22185;-79
2023/08/31 02:53:42;;;;;;;11.40;3.40;;;;;;;13.90;100.00;99480.77;110532;1269;22197;-78
2023/08/31 02:56:12;;;;;;;9.20;2.20;;;;;;;13.90;100.00;99485.71;110511;1266;22174;-79
2023/08/31 02:58:43;;;;;;;10.60;2.70;;;;;;;13.90;100.00;99480.61;110497;1273;22256;-78
2023/08/31 03:01:15;;;;;;;9.50;2.10;;;;;;;13.90;100.00;99479.85;110485;1266;23278;-78
2023/08/31 03:03:46;;;;;;;11.90;2.40;;;;;;;13.89;100.00;99479.34;110529;1272;22265;-78
2023/08/31 03:06:18;;;;;;;7.60;2.20;;;;;;;13.87;100.00;99477.84;110673;1262;22410;-78
2023/08/31 03:08:48;;;;;;;9.90;2.50;;;;;;;13.85;100.00;99479.98;110688;1273;22163;-78
2023/08/31 03:11:19;;;;;;;8.60;2.00;;;;;;;13.83;100.00;99478.73;110464;1266;22609;-78
2023/08/31 03:13:50;;;;;;;10.80;2.30;;;;;;;13.80;100.00;99482.52;110464;1273;22348;-78
2023/08/31 03:16:20;;;;;;;7.90;2.10;;;;;;;13.79;100.00;99479.30;110481;1273;22883;-79
2023/08/31 03:18:51;;;;;;;8.10;2.00;;;;;;;13.78;100.00;99477.05;110498;1274;22230;-78
2023/08/31 03:21:22;;;;;;;8.30;2.00;;;;;;;13.78;100.00;99478.70;110484;1273;22389;-78
2023/08/31 03:23:53;;;;;;;10.50;2.80;;;;;;;13.76;100.00;99477.39;110530;1272;22153;-78
2023/08/31 03:26:26;;;;;;;8.90;2.70;;;;;;;13.74;100.00;99480.35;110472;1269;22208;-78
2023/08/31 03:28:56;;;;;;;10.50;2.50;;;;;;;13.71;100.00;99483.23;110515;1271;23041;-78
2023/08/31 03:31:27;;;;;;;11.30;2.40;;;;;;;13.67;100.00;99478.81;110520;1273;23080;-79
2023/08/31 03:33:58;;;;;;;10.10;2.40;;;;;;;13.65;100.00;99483.62;110517;1266;22325;-78
2023/08/31 03:36:28;;;;;;;11.10;2.80;;;;;;;13.63;100.00;99481.35;110520;1273;23338;-78
2023/08/31 03:38:59;;;;;;;8.90;2.00;;;;;;;13.61;100.00;99487.05;110468;1274;22267;-78
2023/08/31 03:41:31;;;;;;;8.00;2.00;;;;;;;13.59;100.00;99482.02;110449;1273;23124;-78
2023/08/31 03:44:02;;;;;;;7.60;2.20;;;;;;;13.58;100.00;99483.70;110481;1273;22140;-78
2023/08/31 03:46:33;;;;;;;7.20;2.10;;;;;;;13.58;100.00;99480.34;110512;1273;23235;-78
2023/08/31 03:49:03;;;;;;;7.60;2.10;;;;;;;13.57;100.00;99481.56;110489;1274;22184;-78
2023/08/31 03:51:34;;;;;;;15.10;2.60;;;;;;;13.55;100.00;99485.27;110513;1273;22403;-78
2023/08/31 03:54:08;;;;;;;8.10;2.10;;;;;;;13.54;100.00;99491.42;110528;1269;22231;-78
2023/08/31 03:56:38;;;;;;;8.00;2.20;;;;;;;13.52;100.00;99488.80;110516;1273;22212;-78
2023/08/31 03:59:09;;;;;;;10.10;2.70;;;;;;;13.52;100.00;99484.66;110480;1273;22358;-78
2023/08/31 04:01:40;;;;;;;11.50;1.90;;;;;;;13.53;100.00;99478.89;110472;1273;22904;-78
2023/08/31 04:04:10;;;;;;;7.40;2.40;;;;;;;13.51;100.00;99483.02;110488;1266;22184;-78
2023/08/31 04:06:41;;;;;;;8.90;2.60;;;;;;;13.50;100.00;99476.00;110510;1273;22636;-79
2023/08/31 04:09:12;;;;;;;10.10;2.40;;;;;;;13.49;100.00;99479.16;110517;1259;22323;-78
2023/08/31 04:11:42;;;;;;;10.40;2.20;;;;;;;13.48;100.00;99475.96;110492;1272;22201;-78
2023/08/31 04:14:13;;;;;;;16.10;3.10;;;;;;;13.46;100.00;99478.62;110590;1273;22274;-79
2023/08/31 04:16:44;;;;;;;10.70;2.70;;;;;;;13.44;100.00;99479.91;110611;1272;22138;-78
2023/08/31 04:19:14;;;;;;;10.20;2.70;;;;;;;13.41;100.00;99481.70;110599;1272;22190;-79
2023/08/31 04:21:45;;;;;;;11.50;3.00;;;;;;;13.40;100.00;99487.27;110533;1273;22200;-79
2023/08/31 04:24:16;;;;;;;9.50;2.80;;;;;;;13.39;100.00;99487.27;110593;1272;23689;-78
2023/08/31 04:26:49;;;;;;;10.10;2.70;;;;;;;13.38;100.00;99485.74;110614;1272;22227;-78
2023/08/31 04:29:19;;;;;;;9.90;2.40;;;;;;;13.36;100.00;99484.42;110577;1273;22611;-79
2023/08/31 04:31:50;;;;;;;9.90;3.20;;;;;;;13.37;100.00;99489.58;110619;1266;23109;-80
2023/08/31 04:34:21;;;;;;;9.80;3.10;;;;;;;13.38;100.00;99490.69;110562;1269;22129;-79
2023/08/31 04:36:52;;;;;;;11.90;3.50;;;;;;;13.40;100.00;99488.39;110602;1273;23098;-78
2023/08/31 04:39:26;;;;;;;15.40;3.50;;;;;;;13.42;100.00;99494.95;110605;1269;22813;-78
2023/08/31 04:41:57;;;;;;;12.40;3.40;;;;;;;13.44;100.00;99496.79;110577;1273;22289;-77
2023/08/31 04:44:28;;;;;;;15.80;3.50;;;;;;;13.47;100.00;99494.33;110591;1266;22514;-78
2023/08/31 04:46:58;;;;;;;11.60;3.80;;;;;;;13.49;100.00;99485.14;110599;1272;22856;-78
2023/08/31 04:49:29;;;;;;;12.10;3.40;;;;;;;13.52;100.00;99486.50;110624;1269;22339;-79
2023/08/31 04:52:00;;;;;;;12.80;3.60;;;;;;;13.54;100.00;99486.23;110587;1273;22979;-78
2023/08/31 04:54:30;;;;;;;12.90;4.00;;;;;;;13.56;100.00;99488.11;110624;1272;22128;-78
2023/08/31 04:57:03;;;;;;;11.70;3.70;;;;;;;13.57;100.00;99485.44;110568;1273;22221;-78
2023/08/31 04:59:33;;;;;;;13.10;4.10;;;;;;;13.59;100.00;99490.23;110631;1273;22285;-78
2023/08/31 05:02:04;;;;;;;15.90;3.90;;;;;;;13.61;100.00;99491.14;110548;1273;23039;-79
2023/08/31 05:04:35;;;;;;;16.40;4.80;;;;;;;13.63;100.00;99493.89;110575;1273;22156;-78
2023/08/31 05:07:06;;;;;;;12.50;3.70;;;;;;;13.65;100.00;99492.60;110605;1273;22732;-78
2023/08/31 05:09:37;;;;;;;12.10;4.20;;;;;;;13.67;100.00;99499.78;110598;1267;22284;-79
2023/08/31 05:12:08;;;;;;;13.80;3.80;;;;;;;13.67;100.00;99503.86;110597;1272;22226;-78
2023/08/31 05:14:39;;;;;;;16.80;4.70;;;;;;;13.69;100.00;99508.90;110643;1267;22413;-78
2023/08/31 05:17:10;;;;;;;10.80;3.70;;;;;;;13.73;100.00;99512.95;110629;1272;23406;-78
2023/08/31 05:19:44;;;;;;;14.90;4.40;;;;;;;13.76;100.00;99515.18;110563;1266;22353;-78
2023/08/31 05:22:14;;;;;;;18.00;3.80;;;;;;;13.81;100.00;99517.92;110572;1273;22985;-78
2023/08/31 05:24:45;;;;;;;12.90;4.70;;;;;;;13.84;100.00;99510.95;110574;1273;22269;-78
2023/08/31 05:27:16;;;;;;;9.20;3.70;;;;;;;13.88;100.00;99518.33;110579;1273;22291;-78
2023/08/31 05:29:47;;;;;;;13.60;4.10;;;;;;;13.93;100.00;99523.09;110617;1269;22932;-78
2023/08/31 05:32:18;;;;;;;13.20;4.20;;;;;;;13.97;100.00;99526.70;110626;1269;22550;-78
2023/08/31 05:34:48;;;;;;;15.50;4.70;;;;;;;14.02;100.00;99527.43;110594;1257;23074;-78
2023/08/31 05:37:19;;;;;;;12.30;4.40;;;;;;;14.07;100.00;99536.23;110597;1273;22261;-79
2023/08/31 05:39:52;;;;;;;12.90;5.00;;;;;;;14.12;100.00;99541.19;110621;1269;22206;-78
2023/08/31 05:42:23;;;;;;;12.20;4.30;;;;;;;14.17;100.00;99536.21;110493;1273;22312;-78
2023/08/31 05:44:54;;;;;;;10.00;3.20;;;;;;;14.24;100.00;99533.45;110616;1272;22328;-78
2023/08/31 05:47:25;;;;;;;13.40;4.70;;;;;;;14.30;100.00;99543.34;110586;1273;22332;-78
2023/08/31 05:49:56;;;;;;;13.70;5.00;;;;;;;14.36;100.00;99539.21;110603;1273;22177;-78
2023/08/31 05:52:27;;;;;;;12.00;4.50;;;;;;;14.42;100.00;99536.97;110560;1273;22516;-78
2023/08/31 05:54:57;;;;;;;13.60;4.50;;;;;;;14.48;100.00;99545.77;110637;1273;22134;-78
2023/08/31 05:57:28;;;;;;;11.60;4.40;;;;;;;14.52;100.00;99552.52;110619;1257;22179;-78
2023/08/31 05:59:59;;;;;;;14.20;4.50;;;;;;;14.58;100.00;99551.96;110588;1269;23026;-79
2023/08/31 06:02:30;;;;;;;12.70;4.30;;;;;;;14.64;100.00;99557.44;110591;1270;22214;-78
2023/08/31 06:05:01;;;;;;;11.00;5.00;;;;;;;14.69;100.00;99560.44;110611;1272;22137;-78
2023/08/31 06:07:32;;;;;;;13.20;4.30;;;;;;;14.73;100.00;99560.87;110606;1273;22295;-78
2023/08/31 06:10:04;;;;;;;13.20;4.40;;;;;;;14.77;100.00;99561.05;110600;1273;22342;-78
2023/08/31 06:12:35;;;;;;;16.10;5.30;;;;;;;14.80;100.00;99567.00;110600;1269;22365;-78
2023/08/31 06:15:08;;;;;;;15.00;4.60;;;;;;;14.82;100.00;99576.48;110621;1273;22220;-78
2023/08/31 06:17:39;;;;;;;10.60;3.80;;;;;;;14.85;100.00;99575.42;110637;1267;22160;-78
2023/08/31 06:20:12;;;;;;;13.20;5.10;;;;;;;14.87;100.00;99575.98;110588;1273;22177;-78
2023/08/31 06:22:43;;;;;;;13.30;4.80;;;;;;;14.90;100.00;99573.75;110628;1273;23050;-78
2023/08/31 06:25:15;;;;;;;11.60;4.60;;;;;;;14.90;100.00;99574.82;110603;1273;22166;-79
2023/08/31 06:27:46;;;;;;;14.80;4.30;;;;;;;14.92;100.00;99579.35;110619;1273;22251;-78
2023/08/31 06:30:18;;;;;;;14.90;4.60;;;;;;;14.94;100.00;99576.67;110601;1273;23220;-79
2023/08/31 06:32:50;;;;;;;11.70;4.30;;;;;;;14.99;100.00;99581.63;110586;1273;22329;-78
2023/08/31 06:35:21;;;;;;;15.10;5.70;;;;;;;15.02;100.00;99578.08;110648;1273;22169;-78
2023/08/31 06:37:52;;;;;;;13.30;4.70;;;;;;;15.08;100.00;99583.91;110622;1273;22181;-79
2023/08/31 06:40:23;;;;;;;10.30;4.30;;;;;;;15.15;100.00;99582.46;110509;1272;22111;-78
2023/08/31 06:42:53;;;;;;;12.20;4.80;;;;;;;15.21;100.00;99586.54;110613;1273;22202;-79
2023/08/31 06:45:24;;;;;;;13.30;4.90;;;;;;;15.27;100.00;99585.25;110587;1273;22351;-78
2023/08/31 06:47:55;;;;;;;12.40;4.30;;;;;;;15.35;100.00;99588.48;110621;1273;22247;-77
2023/08/31 06:50:26;;;;;;;13.90;4.40;;;;;;;15.42;100.00;99589.19;110624;1268;22329;-77
2023/08/31 06:52:56;;;;;;;18.40;3.70;;;;;;;15.48;100.00;99595.53;110623;1272;22210;-77
2023/08/31 06:55:27;;;;;;;18.50;5.40;;;;;;;15.55;100.00;99595.35;110572;1273;22345;-77
2023/08/31 06:57:58;;;;;;;13.40;5.00;;;;;;;15.64;100.00;99594.23;110767;1273;22147;-78
2023/08/31 07:00:29;;;;;;;13.40;4.40;;;;;;;15.70;100.00;99592.82;110728;1272;22135;-77
2023/08/31 07:03:00;;;;;;;11.70;4.10;;;;;;;15.78;100.00;99598.14;110630;1263;23279;-77
2023/08/31 07:05:36;;;;;;;11.50;3.80;;;;;;;15.86;100.00;99598.92;110612;1273;22207;-77
2023/08/31 07:08:08;;;;;;;12.20;4.10;;;;;;;15.96;100.00;99598.03;110629;1273;22168;-77
2023/08/31 07:10:38;;;;;;;12.60;4.40;;;;;;;16.03;100.00;99602.02;110586;1272;22679;-76
2023/08/31 07:13:09;;;;;;;13.20;4.00;;;;;;;16.11;100.00;99599.55;110628;1273;23027;-76
2023/08/31 07:15:40;;;;;;;12.50;4.60;;;;;;;16.21;100.00;99598.11;110588;1263;22991;-76
2023/08/31 07:18:11;;;;;;;12.20;3.70;;;;;;;16.31;100.00;99600.88;110618;1273;22117;-76
2023/08/31 07:20:42;;;;;;;11.00;3.10;;;;;;;16.39;100.00;99604.48;110592;1272;22147;-76
2023/08/31 07:23:13;;;;;;;11.00;3.80;;;;;;;16.47;99.97;99604.48;110621;1269;22169;-76
2023/08/31 07:25:44;;;;;;;9.80;3.30;;;;;;;16.54;99.76;99607.05;110559;1272;22179;-77
2023/08/31 07:28:15;;;;;;;12.10;3.10;;;;;;;16.63;99.91;99613.33;110565;1270;22260;-77
2023/08/31 07:30:46;;;;;;;9.70;3.40;;;;;;;16.73;99.62;99615.33;110511;1266;22322;-76
2023/08/31 07:33:18;;;;;;;10.40;3.40;;;;;;;16.78;99.45;99617.54;110575;1267;22306;-76
2023/08/31 07:35:49;;;;;;;11.00;2.80;;;;;;;16.82;98.81;99628.91;110590;1262;22866;-77
2023/08/31 07:38:21;;;;;;;11.50;3.80;;;;;;;16.84;98.73;99629.44;110557;1269;23185;-76
2023/08/31 07:40:51;;;;;;;14.20;4.90;;;;;;;16.86;98.07;99632.22;110522;1273;22317;-77
2023/08/31 07:43:22;;;;;;;9.60;3.10;;;;;;;16.93;97.64;99642.83;110527;1262;22135;-77
2023/08/31 07:45:53;;;;;;;10.50;3.00;;;;;;;17.00;97.17;99642.77;110518;1266;23697;-75
2023/08/31 07:48:24;;;;;;;11.60;3.80;;;;;;;17.08;97.56;99644.59;110515;1270;22446;-77
2023/08/31 07:50:56;;;;;;;14.70;5.40;;;;;;;17.15;97.28;99645.44;110540;1272;23464;-77
2023/08/31 07:53:28;;;;;;;15.10;5.60;;;;;;;17.23;97.04;99645.90;110547;1273;22397;-76
2023/08/31 07:55:58;;;;;;;11.20;4.00;;;;;;;17.32;96.63;99652.64;110577;1273;22332;-76
2023/08/31 07:58:29;;;;;;;12.00;4.00;;;;;;;17.39;96.52;99649.89;110588;1266;22173;-77
2023/08/31 08:01:00;;;;;;;11.00;3.90;;;;;;;17.45;96.19;99651.30;110499;1273;23395;-77
2023/08/31 08:03:31;;;;;;;13.60;4.20;;;;;;;17.50;95.14;99653.65;110469;1266;22366;-75
2023/08/31 08:06:03;;;;;;;11.40;3.50;;;;;;;17.53;94.63;99658.80;110548;1273;22114;-77
2023/08/31 08:08:34;;;;;;;11.00;4.30;;;;;;;17.56;94.99;99653.61;110543;1272;22210;-75
2023/08/31 08:11:06;;;;;;;16.70;5.60;;;;;;;17.63;95.10;99662.95;110594;1273;22375;-76
2023/08/31 08:13:37;;;;;;;11.60;4.80;;;;;;;17.73;94.23;99668.16;110586;1267;22283;-77
2023/08/31 08:16:11;;;;;;;10.80;4.60;;;;;;;17.83;93.39;99666.16;110580;1267;22234;-79
2023/08/31 08:18:41;;;;;;;12.00;4.10;;;;;;;17.93;92.64;99667.02;110589;1272;22345;-79
2023/08/31 08:21:12;;;;;;;9.70;3.60;;;;;;;17.99;91.77;99674.42;110546;1257;22400;-79
2023/08/31 08:23:43;;;;;;;12.20;3.90;;;;;;;18.02;91.50;99673.09;110615;1272;23208;-80
2023/08/31 08:26:14;;;;;;;10.30;4.00;;;;;;;18.07;91.48;99671.34;110620;1272;22361;-78
2023/08/31 08:28:45;;;;;;;11.80;4.10;;;;;;;18.12;91.48;99667.73;110605;1273;23356;-78
2023/08/31 08:31:16;;;;;;;12.60;4.60;;;;;;;18.18;90.64;99667.58;110610;1273;23177;-78
2023/08/31 08:33:47;;;;;;;11.50;4.20;;;;;;;18.25;90.72;99666.20;110610;1269;22149;-78
2023/08/31 08:36:18;;;;;;;13.10;4.40;;;;;;;18.32;90.47;99669.84;110621;1273;23304;-76
2023/08/31 08:38:48;;;;;;;11.30;3.90;;;;;;;18.39;89.48;99675.58;110601;1273;22189;-75
2023/08/31 08:41:24;;;;;;;13.90;5.00;;;;;;;18.48;89.94;99681.33;110601;1272;22820;-75
2023/08/31 08:43:57;;;;;;;9.10;3.40;;;;;;;18.53;89.62;99683.91;110632;1273;23065;-75
2023/08/31 08:46:29;;;;;;;10.70;3.60;;;;;;;18.49;89.13;99688.09;110608;1273;22332;-74
2023/08/31 08:49:00;;;;;;;12.00;4.10;;;;;;;18.45;88.81;99689.84;110571;1272;22311;-75
2023/08/31 08:51:32;;;;;;;13.90;3.50;;;;;;;18.39;88.23;99693.16;110594;1272;23246;-75
2023/08/31 08:54:03;;;;;;;12.70;3.40;;;;;;;18.33;87.34;99695.05;110612;1267;22178;-75
2023/08/31 08:56:34;;;;;;;11.60;3.60;;;;;;;18.26;86.67;99698.61;110611;1272;22184;-76
2023/08/31 08:59:05;;;;;;;8.70;3.20;;;;;;;18.20;86.48;99700.19;110527;1267;22364;-76
2023/08/31 09:01:37;;;;;;;9.80;3.40;;;;;;;18.17;87.35;99701.95;110530;1272;22392;-76
2023/08/31 09:04:10;;;;;;;7.80;2.80;;;;;;;18.13;87.89;99702.50;110579;1273;22208;-76
2023/08/31 09:06:41;;;;;;;10.90;4.10;;;;;;;18.05;87.58;99705.38;110583;1268;22158;-76
2023/08/31 09:09:13;;;;;;;9.70;3.30;;;;;;;17.93;88.15;99707.16;110591;1267;22290;-76
2023/08/31 09:11:45;;;;;;;10.70;3.60;;;;;;;17.84;88.64;99713.80;110622;1258;22981;-76
2023/08/31 09:14:20;;;;;;;13.50;3.70;;;;;;;17.76;88.90;99716.46;110626;1273;22235;-76
2023/08/31 09:16:53;;;;;;;8.00;3.00;;;;;;;17.69;88.83;99724.23;110603;1273;22196;-76
2023/08/31 09:19:27;;;;;;;9.10;2.90;;;;;;;17.61;88.73;99728.73;110575;1273;22323;-76
2023/08/31 09:22:00;;;;;;;8.00;2.50;;;;;;;17.49;88.28;99731.40;110592;1272;22277;-75
2023/08/31 09:24:40;;;;;;;6.70;2.50;;;;;;;17.40;88.61;99739.70;110610;1273;22840;-76
2023/08/31 09:27:11;;;;;;;8.00;2.40;;;;;;;17.33;88.71;99745.00;110539;1267;22421;-75
2023/08/31 09:29:47;;;;;;;6.20;1.50;;;;;;;17.25;87.95;99752.83;110530;1269;22309;-75
2023/08/31 09:32:20;;;;;;;5.90;1.70;;;;;;;17.13;87.58;99755.67;110552;1272;23141;-76
2023/08/31 09:34:51;;;;;;;6.00;1.40;;;;;;;17.03;87.22;99761.96;110607;1273;22181;-76
2023/08/31 09:37:22;;;;;;;6.80;1.40;;;;;;;16.94;87.21;99766.98;110605;1269;22271;-76
2023/08/31 09:39:53;;;;;;;4.60;0.90;;;;;;;16.84;86.53;99772.66;110588;1273;22661;-75
2023/08/31 09:42:36;;;;;;;3.80;1.00;;;;;;;16.69;86.01;99775.62;110606;1269;23145;-75
2023/08/31 09:45:09;;;;;;;6.80;1.00;;;;;;;16.56;85.22;99781.48;110542;1266;22219;-76
2023/08/31 09:47:40;;;;;;;3.50;0.90;;;;;;;16.42;84.88;99786.59;110584;1269;22217;-75
2023/08/31 09:50:13;;;;;;;6.30;1.10;;;;;;;16.30;84.85;99795.08;110588;1272;22222;-78
2023/08/31 09:52:44;;;;;;;5.70;1.10;;;;;;;16.16;85.14;99800.70;110527;1269;22215;-78
2023/08/31 09:55:17;;;;;;;4.10;1.00;;;;;;;16.08;85.79;99797.94;110543;1273;23084;-85
2023/08/31 09:57:53;;;;;;;4.50;1.00;;;;;;;16.03;86.04;99800.86;108907;1272;22583;-81
2023/08/31 10:00:25;;;;;;;4.30;1.10;;;;;;;15.95;85.84;99805.94;109025;1273;27395;-80
2023/08/31 10:02:57;;;;;;;4.60;1.10;;;;;;;15.86;86.05;99808.33;108165;1273;22512;-80
2023/08/31 10:05:28;;;;;;;6.80;1.30;;;;;;;15.78;86.49;99810.35;108842;1272;22538;-80
2023/08/31 10:08:01;;;;;;;5.80;1.10;;;;;;;15.70;86.93;99818.14;108011;1273;23268;-80
2023/08/31 10:10:31;;;;;;;5.50;1.00;;;;;;;15.61;87.19;99823.48;110608;1273;22190;-76
2023/08/31 10:13:05;;;;;;;4.70;1.30;;;;;;;15.52;87.28;99830.27;110568;1261;22423;-76
2023/08/31 10:15:37;;;;;;;3.80;0.90;;;;;;;15.45;87.67;99829.50;110582;1269;22139;-76
2023/08/31 10:18:08;;;;;;;5.80;0.80;;;;;;;15.37;87.50;99829.83;110541;1273;23089;-77
2023/08/31 10:20:42;;;;;;;5.20;0.90;;;;;;;15.32;87.90;99832.32;110485;1272;22141;-77
2023/08/31 10:23:14;;;;;;;4.30;0.70;;;;;;;15.30;87.81;99832.08;110601;1273;22200;-77
2023/08/31 10:26:07;;;;;;;4.30;0.90;;;;;;;15.28;88.08;99835.83;110595;1273;22160;-77
2023/08/31 10:28:45;;;;;;;7.40;1.00;;;;;;;15.26;87.98;99837.06;110160;1269;22645;-77
2023/08/31 10:31:20;;;;;;;6.10;0.90;;;;;;;15.26;88.35;99837.58;110141;1278;22212;-76
2023/08/31 10:33:58;;;;;;;7.90;1.60;;;;;;;15.29;88.68;99838.79;110121;1278;22197;-77
2023/08/31 10:36:40;;;;;;;7.60;1.40;;;;;;;15.32;88.62;99840.91;110174;1278;22976;-77
2023/08/31 10:39:17;;;;;;;5.20;1.40;;;;;;;15.36;88.92;99841.71;110222;1277;22203;-77
2023/08/31 10:41:55;;;;;;;5.50;1.20;;;;;;;15.41;89.13;99840.48;110174;1278;22231;-77
2023/08/31 10:44:27;;;;;;;6.10;1.20;;;;;;;15.45;89.05;99841.98;110242;1277;22620;-76
2023/08/31 10:47:00;;;;;;;6.70;1.30;;;;;;;15.48;89.22;99843.34;110221;1278;23075;-77
2023/08/31 10:49:32;;;;;;;5.30;1.20;;;;;;;15.50;89.37;99845.95;110335;1278;22346;-75
2023/08/31 10:52:18;;;;;;;6.00;1.30;;;;;;;15.51;89.20;99849.52;110270;1277;22410;-76
2023/08/31 10:54:55;;;;;;;8.90;1.50;;;;;;;15.53;89.28;99848.53;110169;1274;22618;-77
2023/08/31 10:57:32;;;;;;;6.90;1.50;;;;;;;15.55;89.65;99846.45;110186;1270;23090;-77
2023/08/31 11:00:04;;;;;;;8.60;1.40;;;;;;;15.62;90.04;99846.36;110143;1278;22237;-77
2023/08/31 11:02:38;;;;;;;5.10;1.50;;;;;;;15.69;90.18;99842.61;110155;1278;22316;-77
2023/08/31 11:05:10;;;;;;;5.80;1.40;;;;;;;15.80;90.55;99840.52;110304;1266;22903;-77
2023/08/31 11:07:43;;;;;;;8.80;1.50;;;;;;;15.92;90.21;99840.52;110602;1273;22795;-77
2023/08/31 11:10:19;;;;;;;7.20;1.60;;;;;;;16.04;90.15;99840.45;110639;1272;22167;-77
2023/08/31 11:12:52;;;;;;;6.80;1.70;;;;;;;16.14;89.73;99833.61;110546;1266;23629;-77
2023/08/31 11:15:25;;;;;;;8.90;2.30;;;;;;;16.25;89.71;99831.61;110547;1269;22290;-77
2023/08/31 11:17:57;;;;;;;7.40;2.00;;;;;;;16.36;89.41;99825.09;110526;1273;22159;-77
2023/08/31 11:20:28;;;;;;;8.20;1.40;;;;;;;16.45;89.18;99833.11;110567;1272;22171;-77
2023/08/31 11:22:59;;;;;;;5.80;1.20;;;;;;;16.59;89.13;99826.79;110588;1272;22275;-77
2023/08/31 11:25:33;;;;;;;6.30;1.20;;;;;;;16.72;88.34;99821.76;110597;1257;22412;-77
2023/08/31 11:28:07;;;;;;;4.90;1.10;;;;;;;16.85;88.50;99820.01;110557;1266;22962;-77
2023/08/31 11:30:40;;;;;;;6.60;1.00;;;;;;;16.97;87.19;99825.02;110575;1272;22370;-76
2023/08/31 11:33:13;;;;;;;5.50;1.00;;;;;;;17.07;86.07;99821.45;110608;1272;22882;-77
2023/08/31 11:35:45;;;;;;;3.90;1.00;;;;;;;17.17;85.75;99815.57;110598;1267;23091;-77